Capt. Harry — WDC3690 — position and weather

sailwx.info

Track history (hours):
 
Tides and Currents Weather Stations Pressure Air Temp Water Temp Dewpoint Dewpoint Depression Visibility Wind Speed Wind Dir Waves Ship Positions

Capt. Harry

Owner: Wilmington Tug, Inc., New Castle, DE. More information available from US FCC via Universal Licensing System and Coast Guard Vessel Documentation Center.

Last reported at 2018-Jun-24 04:30 UTC. Time now 2018-Jun-24 04:54 UTC.
Position N 39°48' W 075°25'.

Length 24 m; draft 4 m.

Type: Tug. MMSI: 367012530.

Date/timePositionNaut miles runAvg speedWind from/ knotsBaromVisibWave heightAir tempDewpointWater temp
2018-Jun-24 04:30N 39°48' W 075°25'0 0.3
2018-Jun-24 04:01N 39°48' W 075°25'0 0.1
2018-Jun-24 03:30N 39°48' W 075°25'3 6.1
2018-Jun-24 03:00N 39°50' W 075°22'5 9.5
2018-Jun-24 02:30N 39°51' W 075°16'0 0.0
2018-Jun-24 02:00N 39°51' W 075°16'0 0.0
2018-Jun-24 01:30N 39°51' W 075°16'0 0.0
2018-Jun-24 01:00N 39°51' W 075°16'0 0.7
2018-Jun-24 00:30N 39°51' W 075°16'0 0.0
2018-Jun-24 00:00N 39°51' W 075°16'0 0.7
2018-Jun-23 23:30N 39°51' W 075°16'0 0.0
2018-Jun-23 23:00N 39°51' W 075°16'0 0.0
2018-Jun-23 22:30N 39°51' W 075°16'0 0.0
2018-Jun-23 22:00N 39°51' W 075°16'0 0.0
2018-Jun-23 21:30N 39°51' W 075°16'0 0.0
2018-Jun-23 21:00N 39°51' W 075°16'0 0.0
2018-Jun-23 20:30N 39°51' W 075°16'0 0.0
2018-Jun-23 20:00N 39°51' W 075°16'0 0.0
2018-Jun-23 19:30N 39°51' W 075°16'0 0.0
2018-Jun-23 19:00N 39°51' W 075°16'0 0.0
2018-Jun-23 18:30N 39°51' W 075°16'0 0.0
2018-Jun-23 18:00N 39°51' W 075°16'0 0.0
2018-Jun-23 17:30N 39°51' W 075°16'0 0.0
2018-Jun-23 17:00N 39°51' W 075°16'0 0.0
2018-Jun-23 16:30N 39°51' W 075°16'0 0.4
2018-Jun-23 16:00N 39°51' W 075°16'2 3.8
2018-Jun-23 15:31N 39°52' W 075°14'2 5.0
2018-Jun-23 15:00N 39°53' W 075°11'0 0.0
2018-Jun-23 14:30N 39°53' W 075°11'3 5.3
2018-Jun-23 14:00N 39°54' W 075°08'4 7.3
2018-Jun-23 13:30N 39°58' W 075°07'2 4.9
2018-Jun-23 13:00N 39°59' W 075°04'0 0.0
2018-Jun-23 12:30N 39°59' W 075°04'0 0.9
2018-Jun-23 12:00N 39°59' W 075°05'0 0.0
2018-Jun-23 11:30N 39°59' W 075°05'0 0.0
2018-Jun-23 11:00N 39°59' W 075°05'0 1.0
2018-Jun-23 10:30N 39°59' W 075°06'0 0.3
2018-Jun-23 10:01N 39°59' W 075°05'0 0.0
2018-Jun-23 09:31N 39°59' W 075°05'0 0.0
2018-Jun-23 09:00N 39°59' W 075°05'0 0.0
2018-Jun-23 08:30N 39°59' W 075°05'0 0.0
2018-Jun-23 08:00N 39°59' W 075°05'0 0.0
2018-Jun-23 07:30N 39°59' W 075°05'0 0.0
2018-Jun-23 07:00N 39°59' W 075°05'0 0.0
2018-Jun-23 06:30N 39°59' W 075°05'0 0.0
2018-Jun-23 06:00N 39°59' W 075°05'0 0.0
2018-Jun-23 05:30N 39°59' W 075°05'0 0.0
2018-Jun-23 04:48N 39°59' W 075°05'0 0.0
2018-Jun-23 04:30N 39°59' W 075°05'2 4.5
2018-Jun-23 04:00N 39°58' W 075°08'4 7.4
2018-Jun-23 03:30N 39°54' W 075°08'4 7.6
2018-Jun-23 03:00N 39°52' W 075°13'3 6.8
2018-Jun-23 02:30N 39°51' W 075°17'0 0.6
2018-Jun-23 02:00N 39°51' W 075°16'2 4.6
2018-Jun-23 01:31N 39°52' W 075°14'2 4.7
2018-Jun-23 01:01N 39°53' W 075°11'0 0.0
2018-Jun-23 00:31N 39°53' W 075°11'0 0.0
2018-Jun-23 00:01N 39°53' W 075°11'0 0.0
2018-Jun-22 23:30N 39°53' W 075°11'0 0.0
2018-Jun-22 23:00N 39°53' W 075°11'0 0.0
2018-Jun-22 22:30N 39°53' W 075°11'0 0.0
2018-Jun-22 22:00N 39°53' W 075°11'1 2.9
2018-Jun-22 21:30N 39°53' W 075°09'1 2.4
2018-Jun-22 21:00N 39°54' W 075°08'0 0.0
2018-Jun-22 20:30N 39°54' W 075°08'0 0.0
2018-Jun-22 20:00N 39°54' W 075°08'2 3.5
2018-Jun-22 19:30N 39°56' W 075°08'4 8.2
2018-Jun-22 19:01N 39°59' W 075°05'0 0.3
2018-Jun-22 18:29N 39°59' W 075°04'0 0.0
2018-Jun-22 17:58N 39°59' W 075°04'2 2.0
2018-Jun-22 17:08N 39°58' W 075°07'1 6.1
2018-Jun-22 16:56N 39°58' W 075°08'2 5.7
2018-Jun-22 16:30N 39°55' W 075°08'3 6.4
2018-Jun-22 16:00N 39°53' W 075°11'0 0.0
2018-Jun-22 15:30N 39°53' W 075°11'0 0.0
2018-Jun-22 15:00N 39°53' W 075°11'0 0.0
2018-Jun-22 14:30N 39°53' W 075°11'0 0.0
2018-Jun-22 14:00N 39°53' W 075°11'0 0.0
2018-Jun-22 13:30N 39°53' W 075°11'0 0.0
2018-Jun-22 13:00N 39°53' W 075°11'0 0.0
2018-Jun-22 12:30N 39°53' W 075°11'0 0.0
2018-Jun-22 11:59N 39°53' W 075°11'0 0.0
2018-Jun-22 11:30N 39°53' W 075°11'0 0.0
2018-Jun-22 11:00N 39°53' W 075°11'0 0.0
2018-Jun-22 10:30N 39°53' W 075°11'0 0.0
2018-Jun-22 10:01N 39°53' W 075°11'0 0.0
2018-Jun-22 09:30N 39°53' W 075°11'0 0.0
2018-Jun-22 09:00N 39°53' W 075°11'0 0.0
2018-Jun-22 08:30N 39°53' W 075°11'0 0.0
2018-Jun-22 08:01N 39°53' W 075°11'0 0.0
2018-Jun-22 07:30N 39°53' W 075°11'0 0.0
2018-Jun-22 07:00N 39°53' W 075°11'0 0.0
2018-Jun-22 06:30N 39°53' W 075°11'0 0.0
2018-Jun-22 06:01N 39°53' W 075°11'0 0.0
2018-Jun-22 05:31N 39°53' W 075°11'0 0.0
2018-Jun-22 05:01N 39°53' W 075°11'0 0.0
2018-Jun-22 04:30N 39°53' W 075°11'0 0.0
2018-Jun-22 03:58N 39°53' W 075°11'0 0.0
2018-Jun-22 03:30N 39°53' W 075°11'0 0.0
2018-Jun-22 03:00N 39°53' W 075°11'2 4.4
2018-Jun-22 02:31N 39°54' W 075°08'0 0.3
2018-Jun-22 01:59N 39°54' W 075°08'0 0.6
2018-Jun-22 01:30N 39°54' W 075°08'0 0.0
2018-Jun-22 01:00N 39°54' W 075°08'0 0.0
2018-Jun-22 00:30N 39°54' W 075°08'1 2.7
2018-Jun-22 00:00N 39°55' W 075°08'3 6.2
2018-Jun-21 23:30N 39°53' W 075°11'0 0.4
2018-Jun-21 23:00N 39°53' W 075°11'0 0.0
2018-Jun-21 22:30N 39°53' W 075°11'0 0.0
2018-Jun-21 22:00N 39°53' W 075°11'0 0.0
2018-Jun-21 21:30N 39°53' W 075°11'0 0.0
2018-Jun-21 21:00N 39°53' W 075°11'0 0.0
2018-Jun-21 20:31N 39°53' W 075°11'0 0.0
2018-Jun-21 20:01N 39°53' W 075°11'0 0.0
2018-Jun-21 19:31N 39°53' W 075°11'0 0.0
2018-Jun-21 19:00N 39°53' W 075°11'0 0.0
2018-Jun-21 18:30N 39°53' W 075°11'0 0.0
2018-Jun-21 18:01N 39°53' W 075°11'0 0.0
2018-Jun-21 17:30N 39°53' W 075°11'0 0.0
2018-Jun-21 17:01N 39°53' W 075°11'0 0.0
2018-Jun-21 16:31N 39°53' W 075°11'0 0.0
2018-Jun-21 16:01N 39°53' W 075°11'0 0.0
2018-Jun-21 14:42N 39°53' W 075°11'0 0.0
2018-Jun-21 14:30N 39°53' W 075°11'0 0.0
2018-Jun-21 14:00N 39°53' W 075°11'0 0.0
2018-Jun-21 13:30N 39°53' W 075°11'0 0.0
2018-Jun-21 13:00N 39°53' W 075°11'0 0.0
2018-Jun-21 12:30N 39°53' W 075°11'2 3.7
2018-Jun-21 12:00N 39°52' W 075°13'0 0.0
2018-Jun-21 11:30N 39°52' W 075°13'0 0.1
2018-Jun-21 11:00N 39°52' W 075°13'2 3.7
2018-Jun-21 10:30N 39°51' W 075°15'1 2.7
2018-Jun-21 10:00N 39°52' W 075°14'2 3.8
2018-Jun-21 09:30N 39°51' W 075°16'0 0.0
2018-Jun-21 09:00N 39°51' W 075°16'0 0.0
2018-Jun-21 08:30N 39°51' W 075°16'0 0.0
2018-Jun-21 08:00N 39°51' W 075°16'0 0.8
2018-Jun-21 07:30N 39°51' W 075°16'0 0.1
2018-Jun-21 07:00N 39°51' W 075°16'3 5.4
2018-Jun-21 06:30N 39°52' W 075°13'2 3.7
2018-Jun-21 05:59N 39°53' W 075°11'0 0.0
2018-Jun-21 05:30N 39°53' W 075°11'0 0.0
2018-Jun-21 05:00N 39°53' W 075°11'0 0.0
2018-Jun-21 04:31N 39°53' W 075°11'0 0.0
2018-Jun-21 04:00N 39°53' W 075°11'0 0.0
2018-Jun-21 03:31N 39°53' W 075°11'0 0.0
2018-Jun-21 03:00N 39°53' W 075°11'0 0.0
2018-Jun-21 02:30N 39°53' W 075°11'0 0.0
2018-Jun-21 02:00N 39°53' W 075°11'0 0.0
2018-Jun-21 01:30N 39°53' W 075°11'0 0.0
2018-Jun-21 01:00N 39°53' W 075°11'0 0.0
2018-Jun-21 00:30N 39°53' W 075°11'0 0.0
2018-Jun-21 00:00N 39°53' W 075°11'0 0.0
2018-Jun-20 23:30N 39°53' W 075°11'0 0.0
2018-Jun-20 23:00N 39°53' W 075°11'0 0.0
2018-Jun-20 22:30N 39°53' W 075°11'0 0.0
2018-Jun-20 22:01N 39°53' W 075°11'0 0.0
2018-Jun-20 21:30N 39°53' W 075°11'0 0.0
2018-Jun-20 21:00N 39°53' W 075°11'0 0.0
2018-Jun-20 20:30N 39°53' W 075°11'0 0.0
2018-Jun-20 20:00N 39°53' W 075°11'1 1.1
2018-Jun-20 19:30N 39°53' W 075°12'0 0.0
2018-Jun-20 19:00N 39°53' W 075°12'0 0.0
2018-Jun-20 18:30N 39°53' W 075°12'0 0.0
2018-Jun-20 18:00N 39°53' W 075°12'1 1.0
2018-Jun-20 17:30N 39°53' W 075°11'0 0.0
2018-Jun-20 17:00N 39°53' W 075°11'0 0.0
2018-Jun-20 16:30N 39°53' W 075°11'0 0.0
2018-Jun-20 16:00N 39°53' W 075°11'0 0.0
2018-Jun-20 15:30N 39°53' W 075°11'0 0.0
2018-Jun-20 15:01N 39°53' W 075°11'0 0.0
2018-Jun-20 14:31N 39°53' W 075°11'0 0.0
2018-Jun-20 14:00N 39°53' W 075°11'4 7.5
2018-Jun-20 13:30N 39°51' W 075°15'1 1.7
2018-Jun-20 13:00N 39°51' W 075°16'1 2.3
2018-Jun-20 12:31N 39°51' W 075°18'4 7.3
2018-Jun-20 12:00N 39°50' W 075°22'3 6.9
2018-Jun-20 11:30N 39°48' W 075°26'4 8.0
2018-Jun-20 11:00N 39°45' W 075°29'2 4.1
2018-Jun-20 10:28N 39°43' W 075°31'0 0.0
2018-Jun-20 10:00N 39°43' W 075°31'0 0.0
2018-Jun-20 09:30N 39°43' W 075°31'0 0.0
2018-Jun-20 09:00N 39°43' W 075°31'0 0.0
2018-Jun-20 08:30N 39°43' W 075°31'0 0.0
2018-Jun-20 08:00N 39°43' W 075°31'0 0.0
2018-Jun-20 07:30N 39°43' W 075°31'0 0.0
2018-Jun-20 07:00N 39°43' W 075°31'0 0.0
2018-Jun-20 06:30N 39°43' W 075°31'0 0.0
2018-Jun-20 06:00N 39°43' W 075°31'0 0.0
2018-Jun-20 05:30N 39°43' W 075°31'0 0.0
2018-Jun-20 05:00N 39°43' W 075°31'0 0.0
2018-Jun-20 04:30N 39°43' W 075°31'0 0.0
2018-Jun-20 04:00N 39°43' W 075°31'0 0.0
2018-Jun-20 03:30N 39°43' W 075°31'0 0.0
2018-Jun-20 03:00N 39°43' W 075°31'0 0.0
2018-Jun-20 02:29N 39°43' W 075°31'0 0.0
2018-Jun-20 02:00N 39°43' W 075°31'0 0.0
2018-Jun-20 01:30N 39°43' W 075°31'0 0.5
2018-Jun-20 01:01N 39°43' W 075°31'1 1.8
2018-Jun-20 00:30N 39°42' W 075°31'0 0.3
2018-Jun-20 00:00N 39°43' W 075°31'1 1.5
2018-Jun-19 23:30N 39°43' W 075°31'1 2.4
2018-Jun-19 23:01N 39°42' W 075°31'0 0.9
2018-Jun-19 22:30N 39°42' W 075°31'1 2.8
2018-Jun-19 22:00N 39°43' W 075°31'0 0.0
2018-Jun-19 21:30N 39°43' W 075°31'0 0.0
2018-Jun-19 21:01N 39°43' W 075°31'0 0.0
2018-Jun-19 20:30N 39°43' W 075°31'0 0.0
2018-Jun-19 20:00N 39°43' W 075°31'0 0.0
2018-Jun-19 19:30N 39°43' W 075°31'0 0.0
2018-Jun-19 19:00N 39°43' W 075°31'0 0.0
2018-Jun-19 18:30N 39°43' W 075°31'0 0.0
2018-Jun-19 17:59N 39°43' W 075°31'0 0.2
2018-Jun-19 17:30N 39°43' W 075°31'0 0.2
2018-Jun-19 17:00N 39°43' W 075°31'0 0.0
2018-Jun-19 16:29N 39°43' W 075°31'0 0.0
2018-Jun-19 15:59N 39°43' W 075°31'611.9
2018-Jun-19 15:30N 39°48' W 075°26'2 3.8
2018-Jun-19 15:01N 39°49' W 075°24'0 0.0
2018-Jun-19 14:31N 39°49' W 075°24'1 2.6
2018-Jun-19 14:01N 39°48' W 075°26'0 0.0
2018-Jun-19 13:30N 39°48' W 075°26'0 0.0
2018-Jun-19 13:00N 39°48' W 075°26'0 0.0
2018-Jun-19 12:30N 39°48' W 075°26'0 0.0
2018-Jun-19 12:00N 39°48' W 075°26'510.2
2018-Jun-19 11:31N 39°44' W 075°30'2 3.4
2018-Jun-19 10:58N 39°43' W 075°31'0 0.3
2018-Jun-19 10:30N 39°42' W 075°31'2 3.9
2018-Jun-19 10:00N 39°41' W 075°31'2 4.0
2018-Jun-19 09:30N 39°43' W 075°31'1 1.0
2018-Jun-19 08:59N 39°43' W 075°31'0 0.0
2018-Jun-19 08:30N 39°43' W 075°31'0 0.0
2018-Jun-19 07:58N 39°43' W 075°31'0 0.0
2018-Jun-19 07:31N 39°43' W 075°31'0 0.0
2018-Jun-19 07:00N 39°43' W 075°31'0 0.0
2018-Jun-19 06:30N 39°43' W 075°31'0 0.0
2018-Jun-19 06:00N 39°43' W 075°31'0 0.0
2018-Jun-19 05:30N 39°43' W 075°31'0 0.0
2018-Jun-19 05:00N 39°43' W 075°31'0 0.0
2018-Jun-19 04:30N 39°43' W 075°31'0 0.0
2018-Jun-19 03:59N 39°43' W 075°31'0 0.2
2018-Jun-19 03:30N 39°43' W 075°31'2 4.6
2018-Jun-19 03:00N 39°41' W 075°31'0 0.6
2018-Jun-19 02:30N 39°41' W 075°31'2 4.0
2018-Jun-19 01:59N 39°43' W 075°31'0 0.5
2018-Jun-19 01:30N 39°43' W 075°31'0 0.0
2018-Jun-19 01:00N 39°43' W 075°31'0 0.0
2018-Jun-19 00:30N 39°43' W 075°31'0 0.5
2018-Jun-19 00:00N 39°43' W 075°31'510.6
2018-Jun-18 23:30N 39°38' W 075°34'510.5
2018-Jun-18 23:00N 39°33' W 075°33'510.5
2018-Jun-18 22:30N 39°28' W 075°33'611.0
2018-Jun-18 22:00N 39°23' W 075°29'612.1
2018-Jun-18 21:30N 39°19' W 075°24'7 0.9
2018-Jun-18 13:49N 39°24' W 075°30'514.8
2018-Jun-18 13:30N 39°28' W 075°34'713.9
2018-Jun-18 12:59N 39°35' W 075°33'613.3
2018-Jun-18 12:30N 39°41' W 075°31'2 4.0
2018-Jun-18 11:59N 39°43' W 075°31'0 0.0
2018-Jun-18 11:29N 39°43' W 075°31'0 0.0
2018-Jun-18 10:59N 39°43' W 075°31'0 0.0
2018-Jun-18 10:15N 39°43' W 075°31'0 0.0
2018-Jun-18 09:59N 39°43' W 075°31'0 0.0
2018-Jun-18 09:30N 39°43' W 075°31'0 0.0
2018-Jun-18 09:00N 39°43' W 075°31'0 0.0
2018-Jun-18 08:30N 39°43' W 075°31'0 0.0
2018-Jun-18 07:56N 39°43' W 075°31'0 0.0
2018-Jun-18 07:30N 39°43' W 075°31'0 0.0
2018-Jun-18 06:59N 39°43' W 075°31'0 0.0
2018-Jun-18 06:16N 39°43' W 075°31'0 0.0
2018-Jun-18 04:54N 39°43' W 075°31'0 0.0
2018-Jun-18 04:30N 39°43' W 075°31'0 0.0
2018-Jun-18 03:39N 39°43' W 075°31'0 0.0
2018-Jun-18 03:30N 39°43' W 075°31'0 0.0
2018-Jun-18 01:42N 39°43' W 075°31'0 0.0
2018-Jun-18 01:17N 39°43' W 075°31'0 0.0
2018-Jun-18 01:00N 39°43' W 075°31'0 0.0
2018-Jun-18 00:30N 39°43' W 075°31'0 0.0
2018-Jun-18 00:00N 39°43' W 075°31'0 0.0
2018-Jun-17 23:27N 39°43' W 075°31'0 0.0
2018-Jun-17 23:00N 39°43' W 075°31'0 0.0
2018-Jun-17 22:29N 39°43' W 075°31'0 0.0
2018-Jun-17 22:00N 39°43' W 075°31'0 0.0
2018-Jun-17 21:30N 39°43' W 075°31'0 0.0
2018-Jun-17 20:59N 39°43' W 075°31'0 0.0
2018-Jun-17 20:30N 39°43' W 075°31'0 0.0
2018-Jun-17 19:51N 39°43' W 075°31'0 0.0
2018-Jun-17 19:28N 39°43' W 075°31'0 0.0
2018-Jun-17 18:55N 39°43' W 075°31'0 0.0
2018-Jun-17 16:33N 39°43' W 075°31'0 0.1
2018-Jun-17 16:27N 39°43' W 075°31'0 0.0
2018-Jun-17 15:57N 39°43' W 075°31'0 0.0
2018-Jun-17 15:30N 39°43' W 075°31'0 0.0
2018-Jun-17 15:00N 39°43' W 075°31'0 0.0
2018-Jun-17 14:30N 39°43' W 075°31'0 0.0
2018-Jun-17 14:00N 39°43' W 075°31'0 0.0
2018-Jun-17 13:29N 39°43' W 075°31'0 0.0
2018-Jun-17 12:55N 39°43' W 075°31'0 0.0
2018-Jun-17 12:29N 39°43' W 075°31'0 0.0
2018-Jun-17 12:00N 39°43' W 075°31'0 0.0
2018-Jun-17 11:30N 39°43' W 075°31'0 0.0
2018-Jun-17 11:00N 39°43' W 075°31'0 0.0
2018-Jun-17 10:31N 39°43' W 075°31'0 0.0
2018-Jun-17 10:00N 39°43' W 075°31'0 0.0
2018-Jun-17 09:30N 39°43' W 075°31'0 0.4
2018-Jun-17 09:00N 39°43' W 075°31'1 2.5
2018-Jun-17 08:30N 39°42' W 075°31'0 0.8
2018-Jun-17 08:00N 39°42' W 075°31'1 2.9
2018-Jun-17 07:30N 39°43' W 075°31'0 0.0
2018-Jun-17 07:00N 39°43' W 075°31'0 0.0
2018-Jun-17 06:30N 39°43' W 075°31'0 0.0
2018-Jun-17 06:00N 39°43' W 075°31'0 0.0
2018-Jun-17 05:30N 39°43' W 075°31'0 0.0
2018-Jun-17 05:00N 39°43' W 075°31'0 0.0
2018-Jun-17 04:30N 39°43' W 075°31'0 0.0
2018-Jun-17 04:00N 39°43' W 075°31'0 0.0
2018-Jun-17 03:30N 39°43' W 075°31'0 0.0
2018-Jun-17 03:00N 39°43' W 075°31'0 0.0
2018-Jun-17 02:30N 39°43' W 075°31'0 0.0
2018-Jun-17 02:00N 39°43' W 075°31'0 0.0
2018-Jun-17 01:30N 39°43' W 075°31'0 0.0
2018-Jun-17 00:59N 39°43' W 075°31'0 0.0
2018-Jun-17 00:30N 39°43' W 075°31'0 0.0
2018-Jun-17 00:00N 39°43' W 075°31'0 0.0
2018-Jun-16 23:30N 39°43' W 075°31'0 0.0
2018-Jun-16 23:00N 39°43' W 075°31'0 0.0
2018-Jun-16 22:30N 39°43' W 075°31'0 0.0
2018-Jun-16 22:00N 39°43' W 075°31'0 0.0
2018-Jun-16 21:28N 39°43' W 075°31'0 0.0
2018-Jun-16 21:00N 39°43' W 075°31'0 0.0
2018-Jun-16 20:29N 39°43' W 075°31'1 1.5
2018-Jun-16 20:00N 39°43' W 075°30'5 9.7
2018-Jun-16 19:29N 39°48' W 075°27'2 4.3
2018-Jun-16 19:00N 39°49' W 075°24'0 0.0
2018-Jun-16 18:30N 39°49' W 075°24'0 0.4
2018-Jun-16 18:00N 39°49' W 075°24'2 4.3
2018-Jun-16 17:29N 39°47' W 075°27'4 7.4
2018-Jun-16 17:00N 39°45' W 075°30'2 3.2
2018-Jun-16 16:26N 39°43' W 075°31'0 0.0
2018-Jun-16 16:00N 39°43' W 075°31'0 0.0
2018-Jun-16 15:30N 39°43' W 075°31'0 0.0
2018-Jun-16 14:57N 39°43' W 075°31'0 0.0
2018-Jun-16 14:30N 39°43' W 075°31'0 0.0
2018-Jun-16 14:00N 39°43' W 075°31'0 0.0
2018-Jun-16 13:30N 39°43' W 075°31'0 0.0
2018-Jun-16 13:00N 39°43' W 075°31'0 0.0
2018-Jun-16 12:30N 39°43' W 075°31'0 0.0
2018-Jun-16 12:00N 39°43' W 075°31'0 0.0
2018-Jun-16 11:30N 39°43' W 075°31'0 0.0
2018-Jun-16 11:00N 39°43' W 075°31'0 0.0
2018-Jun-16 10:30N 39°43' W 075°31'0 0.0
2018-Jun-16 10:00N 39°43' W 075°31'0 0.0
2018-Jun-16 09:30N 39°43' W 075°31'0 0.0
2018-Jun-16 09:00N 39°43' W 075°31'0 0.0
2018-Jun-16 08:31N 39°43' W 075°31'0 0.0
2018-Jun-16 08:00N 39°43' W 075°31'0 0.0
2018-Jun-16 07:30N 39°43' W 075°31'0 0.0
2018-Jun-16 07:01N 39°43' W 075°31'0 0.0
2018-Jun-16 06:31N 39°43' W 075°31'0 0.0
2018-Jun-16 06:00N 39°43' W 075°31'0 0.0
2018-Jun-16 05:30N 39°43' W 075°31'0 0.0
2018-Jun-16 05:00N 39°43' W 075°31'0 0.8
2018-Jun-16 04:30N 39°43' W 075°31'713.9
2018-Jun-16 04:00N 39°37' W 075°36'2 4.3
2018-Jun-16 03:30N 39°35' W 075°35'0 0.0
2018-Jun-16 03:00N 39°35' W 075°35'0 0.3
2018-Jun-16 02:30N 39°35' W 075°35'0 0.0
2018-Jun-16 01:59N 39°35' W 075°35'1 0.7
2018-Jun-16 01:17N 39°34' W 075°35'1 1.7
2018-Jun-16 01:00N 39°35' W 075°35'0 0.0
2018-Jun-16 00:30N 39°35' W 075°35'0 0.6
2018-Jun-16 00:00N 39°35' W 075°36'0 0.5
2018-Jun-15 23:30N 39°35' W 075°35'0 0.0
2018-Jun-15 23:00N 39°35' W 075°35'0 0.0
2018-Jun-15 22:30N 39°35' W 075°35'0 0.0
2018-Jun-15 22:00N 39°35' W 075°35'0 0.0
2018-Jun-15 21:30N 39°35' W 075°35'0 0.0
2018-Jun-15 21:00N 39°35' W 075°35'0 0.0
2018-Jun-15 20:29N 39°35' W 075°35'0 0.0
2018-Jun-15 19:56N 39°35' W 075°35'0 0.0
2018-Jun-15 19:29N 39°35' W 075°35'0 0.0
2018-Jun-15 18:58N 39°35' W 075°35'0 0.0
2018-Jun-15 18:30N 39°35' W 075°35'0 0.0
2018-Jun-15 17:59N 39°35' W 075°35'0 0.0
2018-Jun-15 17:30N 39°35' W 075°35'0 0.0
2018-Jun-15 17:00N 39°35' W 075°35'0 0.0
2018-Jun-15 16:30N 39°35' W 075°35'0 0.0
2018-Jun-15 16:00N 39°35' W 075°35'0 0.0
2018-Jun-15 15:30N 39°35' W 075°35'0 0.0
2018-Jun-15 15:00N 39°35' W 075°35'0 0.0
2018-Jun-15 14:30N 39°35' W 075°35'0 0.0
2018-Jun-15 14:00N 39°35' W 075°35'0 0.0
2018-Jun-15 13:30N 39°35' W 075°35'0 0.0
2018-Jun-15 13:00N 39°35' W 075°35'0 0.0
2018-Jun-15 12:30N 39°35' W 075°35'0 0.0
2018-Jun-15 12:00N 39°35' W 075°35'0 0.0
2018-Jun-15 11:30N 39°35' W 075°35'0 0.0
2018-Jun-15 11:00N 39°35' W 075°35'0 0.0
2018-Jun-15 10:30N 39°35' W 075°35'0 0.0
2018-Jun-15 10:00N 39°35' W 075°35'0 0.0
2018-Jun-15 09:30N 39°35' W 075°35'0 0.0
2018-Jun-15 09:00N 39°35' W 075°35'0 0.5
2018-Jun-15 08:30N 39°35' W 075°35'0 0.6
2018-Jun-15 08:00N 39°35' W 075°35'0 0.4
2018-Jun-15 07:30N 39°35' W 075°35'0 0.0
2018-Jun-15 07:00N 39°35' W 075°35'0 0.3
2018-Jun-15 06:30N 39°35' W 075°35'2 3.4
2018-Jun-15 06:00N 39°34' W 075°33'1 1.9
2018-Jun-15 05:30N 39°35' W 075°34'2 3.4
2018-Jun-15 05:00N 39°35' W 075°36'5 9.4
2018-Jun-15 04:30N 39°40' W 075°33'4 7.5
2018-Jun-15 04:00N 39°43' W 075°31'0 0.0
2018-Jun-15 03:31N 39°43' W 075°31'0 0.0
2018-Jun-15 03:01N 39°43' W 075°31'0 0.0
2018-Jun-15 02:30N 39°43' W 075°31'0 0.0
2018-Jun-15 02:01N 39°43' W 075°31'0 0.0
2018-Jun-15 01:30N 39°43' W 075°31'0 0.0
2018-Jun-15 01:00N 39°43' W 075°31'0 0.0
2018-Jun-15 00:30N 39°43' W 075°31'0 0.0
2018-Jun-15 00:00N 39°43' W 075°31'0 0.0
2018-Jun-14 23:30N 39°43' W 075°31'0 0.0
2018-Jun-14 23:00N 39°43' W 075°31'0 0.0
2018-Jun-14 22:30N 39°43' W 075°31'0 0.0
2018-Jun-14 22:00N 39°43' W 075°31'0 0.0
2018-Jun-14 21:30N 39°43' W 075°31'0 0.0
2018-Jun-14 21:00N 39°43' W 075°31'0 0.0
2018-Jun-14 20:30N 39°43' W 075°31'0 0.0
2018-Jun-14 20:00N 39°43' W 075°31'0 0.0
2018-Jun-14 19:29N 39°43' W 075°31'0 0.0
2018-Jun-14 19:00N 39°43' W 075°31'0 0.0
2018-Jun-14 18:30N 39°43' W 075°31'0 0.0
2018-Jun-14 18:00N 39°43' W 075°31'0 0.0
2018-Jun-14 17:30N 39°43' W 075°31'0 0.0
2018-Jun-14 17:01N 39°43' W 075°31'0 0.0
2018-Jun-14 16:30N 39°43' W 075°31'0 0.0
2018-Jun-14 16:00N 39°43' W 075°31'0 0.0
2018-Jun-14 15:31N 39°43' W 075°31'0 0.0
2018-Jun-14 15:00N 39°43' W 075°31'0 0.0
2018-Jun-14 14:29N 39°43' W 075°31'0 0.0
2018-Jun-14 14:01N 39°43' W 075°31'0 0.0
2018-Jun-14 13:30N 39°43' W 075°31'0 0.0
2018-Jun-14 11:34N 39°43' W 075°31'0 0.1
2018-Jun-14 11:30N 39°43' W 075°31'0 0.0
2018-Jun-14 11:00N 39°43' W 075°31'0 0.0
2018-Jun-14 10:30N 39°43' W 075°31'3 5.2
2018-Jun-14 10:00N 39°45' W 075°29'510.1
2018-Jun-14 09:30N 39°49' W 075°24'0 0.1
2018-Jun-14 09:00N 39°49' W 075°24'0 0.0
2018-Jun-14 08:31N 39°49' W 075°24'0 0.6
2018-Jun-14 08:00N 39°48' W 075°25'1 1.9
2018-Jun-14 07:30N 39°48' W 075°26'0 0.0
2018-Jun-14 07:00N 39°48' W 075°26'0 0.0
2018-Jun-14 06:31N 39°48' W 075°26'0 0.0
2018-Jun-14 06:00N 39°48' W 075°26'0 0.0
2018-Jun-14 05:30N 39°48' W 075°26'0 0.0
2018-Jun-14 05:01N 39°48' W 075°26'0 0.0
2018-Jun-14 04:31N 39°48' W 075°26'  
Track history (hours):
 
Tides and Currents Weather Stations Pressure Air Temp Water Temp Dewpoint Dewpoint Depression Visibility Wind Speed Wind Dir Waves Ship Positions

Capt. Harry

Owner: Wilmington Tug, Inc., New Castle, DE. More information available from US FCC via Universal Licensing System and Coast Guard Vessel Documentation Center.

Last reported at 2018-Jun-24 04:30 UTC. Time now 2018-Jun-24 04:54 UTC.
Position N 39°48' W 075°25'.

Length 24 m; draft 4 m.

Type: Tug. MMSI: 367012530.

Date/timePositionNaut miles runAvg speedWind from/ knotsBaromVisibWave heightAir tempDewpointWater temp
2018-Jun-24 04:30N 39°48' W 075°25'0 0.3
2018-Jun-24 04:01N 39°48' W 075°25'0 0.1
2018-Jun-24 03:30N 39°48' W 075°25'3 6.1
2018-Jun-24 03:00N 39°50' W 075°22'5 9.5
2018-Jun-24 02:30N 39°51' W 075°16'0 0.0
2018-Jun-24 02:00N 39°51' W 075°16'0 0.0
2018-Jun-24 01:30N 39°51' W 075°16'0 0.0
2018-Jun-24 01:00N 39°51' W 075°16'0 0.7
2018-Jun-24 00:30N 39°51' W 075°16'0 0.0
2018-Jun-24 00:00N 39°51' W 075°16'0 0.7
2018-Jun-23 23:30N 39°51' W 075°16'0 0.0
2018-Jun-23 23:00N 39°51' W 075°16'0 0.0
2018-Jun-23 22:30N 39°51' W 075°16'0 0.0
2018-Jun-23 22:00N 39°51' W 075°16'0 0.0
2018-Jun-23 21:30N 39°51' W 075°16'0 0.0
2018-Jun-23 21:00N 39°51' W 075°16'0 0.0
2018-Jun-23 20:30N 39°51' W 075°16'0 0.0
2018-Jun-23 20:00N 39°51' W 075°16'0 0.0
2018-Jun-23 19:30N 39°51' W 075°16'0 0.0
2018-Jun-23 19:00N 39°51' W 075°16'0 0.0
2018-Jun-23 18:30N 39°51' W 075°16'0 0.0
2018-Jun-23 18:00N 39°51' W 075°16'0 0.0
2018-Jun-23 17:30N 39°51' W 075°16'0 0.0
2018-Jun-23 17:00N 39°51' W 075°16'0 0.0
2018-Jun-23 16:30N 39°51' W 075°16'0 0.4
2018-Jun-23 16:00N 39°51' W 075°16'2 3.8
2018-Jun-23 15:31N 39°52' W 075°14'2 5.0
2018-Jun-23 15:00N 39°53' W 075°11'0 0.0
2018-Jun-23 14:30N 39°53' W 075°11'3 5.3
2018-Jun-23 14:00N 39°54' W 075°08'4 7.3
2018-Jun-23 13:30N 39°58' W 075°07'2 4.9
2018-Jun-23 13:00N 39°59' W 075°04'0 0.0
2018-Jun-23 12:30N 39°59' W 075°04'0 0.9
2018-Jun-23 12:00N 39°59' W 075°05'0 0.0
2018-Jun-23 11:30N 39°59' W 075°05'0 0.0
2018-Jun-23 11:00N 39°59' W 075°05'0 1.0
2018-Jun-23 10:30N 39°59' W 075°06'0 0.3
2018-Jun-23 10:01N 39°59' W 075°05'0 0.0
2018-Jun-23 09:31N 39°59' W 075°05'0 0.0
2018-Jun-23 09:00N 39°59' W 075°05'0 0.0
2018-Jun-23 08:30N 39°59' W 075°05'0 0.0
2018-Jun-23 08:00N 39°59' W 075°05'0 0.0
2018-Jun-23 07:30N 39°59' W 075°05'0 0.0
2018-Jun-23 07:00N 39°59' W 075°05'0 0.0
2018-Jun-23 06:30N 39°59' W 075°05'0 0.0
2018-Jun-23 06:00N 39°59' W 075°05'0 0.0
2018-Jun-23 05:30N 39°59' W 075°05'0 0.0
2018-Jun-23 04:48N 39°59' W 075°05'0 0.0
2018-Jun-23 04:30N 39°59' W 075°05'2 4.5
2018-Jun-23 04:00N 39°58' W 075°08'4 7.4
2018-Jun-23 03:30N 39°54' W 075°08'4 7.6
2018-Jun-23 03:00N 39°52' W 075°13'3 6.8
2018-Jun-23 02:30N 39°51' W 075°17'0 0.6
2018-Jun-23 02:00N 39°51' W 075°16'2 4.6
2018-Jun-23 01:31N 39°52' W 075°14'2 4.7
2018-Jun-23 01:01N 39°53' W 075°11'0 0.0
2018-Jun-23 00:31N 39°53' W 075°11'0 0.0
2018-Jun-23 00:01N 39°53' W 075°11'0 0.0
2018-Jun-22 23:30N 39°53' W 075°11'0 0.0
2018-Jun-22 23:00N 39°53' W 075°11'0 0.0
2018-Jun-22 22:30N 39°53' W 075°11'0 0.0
2018-Jun-22 22:00N 39°53' W 075°11'1 2.9
2018-Jun-22 21:30N 39°53' W 075°09'1 2.4
2018-Jun-22 21:00N 39°54' W 075°08'0 0.0
2018-Jun-22 20:30N 39°54' W 075°08'0 0.0
2018-Jun-22 20:00N 39°54' W 075°08'2 3.5
2018-Jun-22 19:30N 39°56' W 075°08'4 8.2
2018-Jun-22 19:01N 39°59' W 075°05'0 0.3
2018-Jun-22 18:29N 39°59' W 075°04'0 0.0
2018-Jun-22 17:58N 39°59' W 075°04'2 2.0
2018-Jun-22 17:08N 39°58' W 075°07'1 6.1
2018-Jun-22 16:56N 39°58' W 075°08'2 5.7
2018-Jun-22 16:30N 39°55' W 075°08'3 6.4
2018-Jun-22 16:00N 39°53' W 075°11'0 0.0
2018-Jun-22 15:30N 39°53' W 075°11'0 0.0
2018-Jun-22 15:00N 39°53' W 075°11'0 0.0
2018-Jun-22 14:30N 39°53' W 075°11'0 0.0
2018-Jun-22 14:00N 39°53' W 075°11'0 0.0
2018-Jun-22 13:30N 39°53' W 075°11'0 0.0
2018-Jun-22 13:00N 39°53' W 075°11'0 0.0
2018-Jun-22 12:30N 39°53' W 075°11'0 0.0
2018-Jun-22 11:59N 39°53' W 075°11'0 0.0
2018-Jun-22 11:30N 39°53' W 075°11'0 0.0
2018-Jun-22 11:00N 39°53' W 075°11'0 0.0
2018-Jun-22 10:30N 39°53' W 075°11'0 0.0
2018-Jun-22 10:01N 39°53' W 075°11'0 0.0
2018-Jun-22 09:30N 39°53' W 075°11'0 0.0
2018-Jun-22 09:00N 39°53' W 075°11'0 0.0
2018-Jun-22 08:30N 39°53' W 075°11'0 0.0
2018-Jun-22 08:01N 39°53' W 075°11'0 0.0
2018-Jun-22 07:30N 39°53' W 075°11'0 0.0
2018-Jun-22 07:00N 39°53' W 075°11'0 0.0
2018-Jun-22 06:30N 39°53' W 075°11'0 0.0
2018-Jun-22 06:01N 39°53' W 075°11'0 0.0
2018-Jun-22 05:31N 39°53' W 075°11'0 0.0
2018-Jun-22 05:01N 39°53' W 075°11'0 0.0
2018-Jun-22 04:30N 39°53' W 075°11'0 0.0
2018-Jun-22 03:58N 39°53' W 075°11'0 0.0
2018-Jun-22 03:30N 39°53' W 075°11'0 0.0
2018-Jun-22 03:00N 39°53' W 075°11'2 4.4
2018-Jun-22 02:31N 39°54' W 075°08'0 0.3
2018-Jun-22 01:59N 39°54' W 075°08'0 0.6
2018-Jun-22 01:30N 39°54' W 075°08'0 0.0
2018-Jun-22 01:00N 39°54' W 075°08'0 0.0
2018-Jun-22 00:30N 39°54' W 075°08'1 2.7
2018-Jun-22 00:00N 39°55' W 075°08'3 6.2
2018-Jun-21 23:30N 39°53' W 075°11'0 0.4
2018-Jun-21 23:00N 39°53' W 075°11'0 0.0
2018-Jun-21 22:30N 39°53' W 075°11'0 0.0
2018-Jun-21 22:00N 39°53' W 075°11'0 0.0
2018-Jun-21 21:30N 39°53' W 075°11'0 0.0
2018-Jun-21 21:00N 39°53' W 075°11'0 0.0
2018-Jun-21 20:31N 39°53' W 075°11'0 0.0
2018-Jun-21 20:01N 39°53' W 075°11'0 0.0
2018-Jun-21 19:31N 39°53' W 075°11'0 0.0
2018-Jun-21 19:00N 39°53' W 075°11'0 0.0
2018-Jun-21 18:30N 39°53' W 075°11'0 0.0
2018-Jun-21 18:01N 39°53' W 075°11'0 0.0
2018-Jun-21 17:30N 39°53' W 075°11'0 0.0
2018-Jun-21 17:01N 39°53' W 075°11'0 0.0
2018-Jun-21 16:31N 39°53' W 075°11'0 0.0
2018-Jun-21 16:01N 39°53' W 075°11'0 0.0
2018-Jun-21 14:42N 39°53' W 075°11'0 0.0
2018-Jun-21 14:30N 39°53' W 075°11'0 0.0
2018-Jun-21 14:00N 39°53' W 075°11'0 0.0
2018-Jun-21 13:30N 39°53' W 075°11'0 0.0
2018-Jun-21 13:00N 39°53' W 075°11'0 0.0
2018-Jun-21 12:30N 39°53' W 075°11'2 3.7
2018-Jun-21 12:00N 39°52' W 075°13'0 0.0
2018-Jun-21 11:30N 39°52' W 075°13'0 0.1
2018-Jun-21 11:00N 39°52' W 075°13'2 3.7
2018-Jun-21 10:30N 39°51' W 075°15'1 2.7
2018-Jun-21 10:00N 39°52' W 075°14'2 3.8
2018-Jun-21 09:30N 39°51' W 075°16'0 0.0
2018-Jun-21 09:00N 39°51' W 075°16'0 0.0
2018-Jun-21 08:30N 39°51' W 075°16'0 0.0
2018-Jun-21 08:00N 39°51' W 075°16'0 0.8
2018-Jun-21 07:30N 39°51' W 075°16'0 0.1
2018-Jun-21 07:00N 39°51' W 075°16'3 5.4
2018-Jun-21 06:30N 39°52' W 075°13'2 3.7
2018-Jun-21 05:59N 39°53' W 075°11'0 0.0
2018-Jun-21 05:30N 39°53' W 075°11'0 0.0
2018-Jun-21 05:00N 39°53' W 075°11'0 0.0
2018-Jun-21 04:31N 39°53' W 075°11'0 0.0
2018-Jun-21 04:00N 39°53' W 075°11'0 0.0
2018-Jun-21 03:31N 39°53' W 075°11'0 0.0
2018-Jun-21 03:00N 39°53' W 075°11'0 0.0
2018-Jun-21 02:30N 39°53' W 075°11'0 0.0
2018-Jun-21 02:00N 39°53' W 075°11'0 0.0
2018-Jun-21 01:30N 39°53' W 075°11'0 0.0
2018-Jun-21 01:00N 39°53' W 075°11'0 0.0
2018-Jun-21 00:30N 39°53' W 075°11'0 0.0
2018-Jun-21 00:00N 39°53' W 075°11'0 0.0
2018-Jun-20 23:30N 39°53' W 075°11'0 0.0
2018-Jun-20 23:00N 39°53' W 075°11'0 0.0
2018-Jun-20 22:30N 39°53' W 075°11'0 0.0
2018-Jun-20 22:01N 39°53' W 075°11'0 0.0
2018-Jun-20 21:30N 39°53' W 075°11'0 0.0
2018-Jun-20 21:00N 39°53' W 075°11'0 0.0
2018-Jun-20 20:30N 39°53' W 075°11'0 0.0
2018-Jun-20 20:00N 39°53' W 075°11'1 1.1
2018-Jun-20 19:30N 39°53' W 075°12'0 0.0
2018-Jun-20 19:00N 39°53' W 075°12'0 0.0
2018-Jun-20 18:30N 39°53' W 075°12'0 0.0
2018-Jun-20 18:00N 39°53' W 075°12'1 1.0
2018-Jun-20 17:30N 39°53' W 075°11'0 0.0
2018-Jun-20 17:00N 39°53' W 075°11'0 0.0
2018-Jun-20 16:30N 39°53' W 075°11'0 0.0
2018-Jun-20 16:00N 39°53' W 075°11'0 0.0
2018-Jun-20 15:30N 39°53' W 075°11'0 0.0
2018-Jun-20 15:01N 39°53' W 075°11'0 0.0
2018-Jun-20 14:31N 39°53' W 075°11'0 0.0
2018-Jun-20 14:00N 39°53' W 075°11'4 7.5
2018-Jun-20 13:30N 39°51' W 075°15'1 1.7
2018-Jun-20 13:00N 39°51' W 075°16'1 2.3
2018-Jun-20 12:31N 39°51' W 075°18'4 7.3
2018-Jun-20 12:00N 39°50' W 075°22'3 6.9
2018-Jun-20 11:30N 39°48' W 075°26'4 8.0
2018-Jun-20 11:00N 39°45' W 075°29'2 4.1
2018-Jun-20 10:28N 39°43' W 075°31'0 0.0
2018-Jun-20 10:00N 39°43' W 075°31'0 0.0
2018-Jun-20 09:30N 39°43' W 075°31'0 0.0
2018-Jun-20 09:00N 39°43' W 075°31'0 0.0
2018-Jun-20 08:30N 39°43' W 075°31'0 0.0
2018-Jun-20 08:00N 39°43' W 075°31'0 0.0
2018-Jun-20 07:30N 39°43' W 075°31'0 0.0
2018-Jun-20 07:00N 39°43' W 075°31'0 0.0
2018-Jun-20 06:30N 39°43' W 075°31'0 0.0
2018-Jun-20 06:00N 39°43' W 075°31'0 0.0
2018-Jun-20 05:30N 39°43' W 075°31'0 0.0
2018-Jun-20 05:00N 39°43' W 075°31'0 0.0
2018-Jun-20 04:30N 39°43' W 075°31'0 0.0
2018-Jun-20 04:00N 39°43' W 075°31'0 0.0
2018-Jun-20 03:30N 39°43' W 075°31'0 0.0
2018-Jun-20 03:00N 39°43' W 075°31'0 0.0
2018-Jun-20 02:29N 39°43' W 075°31'0 0.0
2018-Jun-20 02:00N 39°43' W 075°31'0 0.0
2018-Jun-20 01:30N 39°43' W 075°31'0 0.5
2018-Jun-20 01:01N 39°43' W 075°31'1 1.8
2018-Jun-20 00:30N 39°42' W 075°31'0 0.3
2018-Jun-20 00:00N 39°43' W 075°31'1 1.5
2018-Jun-19 23:30N 39°43' W 075°31'1 2.4
2018-Jun-19 23:01N 39°42' W 075°31'0 0.9
2018-Jun-19 22:30N 39°42' W 075°31'1 2.8
2018-Jun-19 22:00N 39°43' W 075°31'0 0.0
2018-Jun-19 21:30N 39°43' W 075°31'0 0.0
2018-Jun-19 21:01N 39°43' W 075°31'0 0.0
2018-Jun-19 20:30N 39°43' W 075°31'0 0.0
2018-Jun-19 20:00N 39°43' W 075°31'0 0.0
2018-Jun-19 19:30N 39°43' W 075°31'0 0.0
2018-Jun-19 19:00N 39°43' W 075°31'0 0.0
2018-Jun-19 18:30N 39°43' W 075°31'0 0.0
2018-Jun-19 17:59N 39°43' W 075°31'0 0.2
2018-Jun-19 17:30N 39°43' W 075°31'0 0.2
2018-Jun-19 17:00N 39°43' W 075°31'0 0.0
2018-Jun-19 16:29N 39°43' W 075°31'0 0.0
2018-Jun-19 15:59N 39°43' W 075°31'611.9
2018-Jun-19 15:30N 39°48' W 075°26'2 3.8
2018-Jun-19 15:01N 39°49' W 075°24'0 0.0
2018-Jun-19 14:31N 39°49' W 075°24'1 2.6
2018-Jun-19 14:01N 39°48' W 075°26'0 0.0
2018-Jun-19 13:30N 39°48' W 075°26'0 0.0
2018-Jun-19 13:00N 39°48' W 075°26'0 0.0
2018-Jun-19 12:30N 39°48' W 075°26'0 0.0
2018-Jun-19 12:00N 39°48' W 075°26'510.2
2018-Jun-19 11:31N 39°44' W 075°30'2 3.4
2018-Jun-19 10:58N 39°43' W 075°31'0 0.3
2018-Jun-19 10:30N 39°42' W 075°31'2 3.9
2018-Jun-19 10:00N 39°41' W 075°31'2 4.0
2018-Jun-19 09:30N 39°43' W 075°31'1 1.0
2018-Jun-19 08:59N 39°43' W 075°31'0 0.0
2018-Jun-19 08:30N 39°43' W 075°31'0 0.0
2018-Jun-19 07:58N 39°43' W 075°31'0 0.0
2018-Jun-19 07:31N 39°43' W 075°31'0 0.0
2018-Jun-19 07:00N 39°43' W 075°31'0 0.0
2018-Jun-19 06:30N 39°43' W 075°31'0 0.0
2018-Jun-19 06:00N 39°43' W 075°31'0 0.0
2018-Jun-19 05:30N 39°43' W 075°31'0 0.0
2018-Jun-19 05:00N 39°43' W 075°31'0 0.0
2018-Jun-19 04:30N 39°43' W 075°31'0 0.0
2018-Jun-19 03:59N 39°43' W 075°31'0 0.2
2018-Jun-19 03:30N 39°43' W 075°31'2 4.6
2018-Jun-19 03:00N 39°41' W 075°31'0 0.6
2018-Jun-19 02:30N 39°41' W 075°31'2 4.0
2018-Jun-19 01:59N 39°43' W 075°31'0 0.5
2018-Jun-19 01:30N 39°43' W 075°31'0 0.0
2018-Jun-19 01:00N 39°43' W 075°31'0 0.0
2018-Jun-19 00:30N 39°43' W 075°31'0 0.5
2018-Jun-19 00:00N 39°43' W 075°31'510.6
2018-Jun-18 23:30N 39°38' W 075°34'510.5
2018-Jun-18 23:00N 39°33' W 075°33'510.5
2018-Jun-18 22:30N 39°28' W 075°33'611.0
2018-Jun-18 22:00N 39°23' W 075°29'612.1
2018-Jun-18 21:30N 39°19' W 075°24'7 0.9
2018-Jun-18 13:49N 39°24' W 075°30'514.8
2018-Jun-18 13:30N 39°28' W 075°34'713.9
2018-Jun-18 12:59N 39°35' W 075°33'613.3
2018-Jun-18 12:30N 39°41' W 075°31'2 4.0
2018-Jun-18 11:59N 39°43' W 075°31'0 0.0
2018-Jun-18 11:29N 39°43' W 075°31'0 0.0
2018-Jun-18 10:59N 39°43' W 075°31'0 0.0
2018-Jun-18 10:15N 39°43' W 075°31'0 0.0
2018-Jun-18 09:59N 39°43' W 075°31'0 0.0
2018-Jun-18 09:30N 39°43' W 075°31'0 0.0
2018-Jun-18 09:00N 39°43' W 075°31'0 0.0
2018-Jun-18 08:30N 39°43' W 075°31'0 0.0
2018-Jun-18 07:56N 39°43' W 075°31'0 0.0
2018-Jun-18 07:30N 39°43' W 075°31'0 0.0
2018-Jun-18 06:59N 39°43' W 075°31'0 0.0
2018-Jun-18 06:16N 39°43' W 075°31'0 0.0
2018-Jun-18 04:54N 39°43' W 075°31'0 0.0
2018-Jun-18 04:30N 39°43' W 075°31'0 0.0
2018-Jun-18 03:39N 39°43' W 075°31'0 0.0
2018-Jun-18 03:30N 39°43' W 075°31'0 0.0
2018-Jun-18 01:42N 39°43' W 075°31'0 0.0
2018-Jun-18 01:17N 39°43' W 075°31'0 0.0
2018-Jun-18 01:00N 39°43' W 075°31'0 0.0
2018-Jun-18 00:30N 39°43' W 075°31'0 0.0
2018-Jun-18 00:00N 39°43' W 075°31'0 0.0
2018-Jun-17 23:27N 39°43' W 075°31'0 0.0
2018-Jun-17 23:00N 39°43' W 075°31'0 0.0
2018-Jun-17 22:29N 39°43' W 075°31'0 0.0
2018-Jun-17 22:00N 39°43' W 075°31'0 0.0
2018-Jun-17 21:30N 39°43' W 075°31'0 0.0
2018-Jun-17 20:59N 39°43' W 075°31'0 0.0
2018-Jun-17 20:30N 39°43' W 075°31'0 0.0
2018-Jun-17 19:51N 39°43' W 075°31'0 0.0
2018-Jun-17 19:28N 39°43' W 075°31'0 0.0
2018-Jun-17 18:55N 39°43' W 075°31'0 0.0
2018-Jun-17 16:33N 39°43' W 075°31'0 0.1
2018-Jun-17 16:27N 39°43' W 075°31'0 0.0
2018-Jun-17 15:57N 39°43' W 075°31'0 0.0
2018-Jun-17 15:30N 39°43' W 075°31'0 0.0
2018-Jun-17 15:00N 39°43' W 075°31'0 0.0
2018-Jun-17 14:30N 39°43' W 075°31'0 0.0
2018-Jun-17 14:00N 39°43' W 075°31'0 0.0
2018-Jun-17 13:29N 39°43' W 075°31'0 0.0
2018-Jun-17 12:55N 39°43' W 075°31'0 0.0
2018-Jun-17 12:29N 39°43' W 075°31'0 0.0
2018-Jun-17 12:00N 39°43' W 075°31'0 0.0
2018-Jun-17 11:30N 39°43' W 075°31'0 0.0
2018-Jun-17 11:00N 39°43' W 075°31'0 0.0
2018-Jun-17 10:31N 39°43' W 075°31'0 0.0
2018-Jun-17 10:00N 39°43' W 075°31'0 0.0
2018-Jun-17 09:30N 39°43' W 075°31'0 0.4
2018-Jun-17 09:00N 39°43' W 075°31'1 2.5
2018-Jun-17 08:30N 39°42' W 075°31'0 0.8
2018-Jun-17 08:00N 39°42' W 075°31'1 2.9
2018-Jun-17 07:30N 39°43' W 075°31'0 0.0
2018-Jun-17 07:00N 39°43' W 075°31'0 0.0
2018-Jun-17 06:30N 39°43' W 075°31'0 0.0
2018-Jun-17 06:00N 39°43' W 075°31'0 0.0
2018-Jun-17 05:30N 39°43' W 075°31'0 0.0
2018-Jun-17 05:00N 39°43' W 075°31'0 0.0
2018-Jun-17 04:30N 39°43' W 075°31'0 0.0
2018-Jun-17 04:00N 39°43' W 075°31'0 0.0
2018-Jun-17 03:30N 39°43' W 075°31'0 0.0
2018-Jun-17 03:00N 39°43' W 075°31'0 0.0
2018-Jun-17 02:30N 39°43' W 075°31'0 0.0
2018-Jun-17 02:00N 39°43' W 075°31'0 0.0
2018-Jun-17 01:30N 39°43' W 075°31'0 0.0
2018-Jun-17 00:59N 39°43' W 075°31'0 0.0
2018-Jun-17 00:30N 39°43' W 075°31'0 0.0
2018-Jun-17 00:00N 39°43' W 075°31'0 0.0
2018-Jun-16 23:30N 39°43' W 075°31'0 0.0
2018-Jun-16 23:00N 39°43' W 075°31'0 0.0
2018-Jun-16 22:30N 39°43' W 075°31'0 0.0
2018-Jun-16 22:00N 39°43' W 075°31'0 0.0
2018-Jun-16 21:28N 39°43' W 075°31'0 0.0
2018-Jun-16 21:00N 39°43' W 075°31'0 0.0
2018-Jun-16 20:29N 39°43' W 075°31'1 1.5
2018-Jun-16 20:00N 39°43' W 075°30'5 9.7
2018-Jun-16 19:29N 39°48' W 075°27'2 4.3
2018-Jun-16 19:00N 39°49' W 075°24'0 0.0
2018-Jun-16 18:30N 39°49' W 075°24'0 0.4
2018-Jun-16 18:00N 39°49' W 075°24'2 4.3
2018-Jun-16 17:29N 39°47' W 075°27'4 7.4
2018-Jun-16 17:00N 39°45' W 075°30'2 3.2
2018-Jun-16 16:26N 39°43' W 075°31'0 0.0
2018-Jun-16 16:00N 39°43' W 075°31'0 0.0
2018-Jun-16 15:30N 39°43' W 075°31'0 0.0
2018-Jun-16 14:57N 39°43' W 075°31'0 0.0
2018-Jun-16 14:30N 39°43' W 075°31'0 0.0
2018-Jun-16 14:00N 39°43' W 075°31'0 0.0
2018-Jun-16 13:30N 39°43' W 075°31'0 0.0
2018-Jun-16 13:00N 39°43' W 075°31'0 0.0
2018-Jun-16 12:30N 39°43' W 075°31'0 0.0
2018-Jun-16 12:00N 39°43' W 075°31'0 0.0
2018-Jun-16 11:30N 39°43' W 075°31'0 0.0
2018-Jun-16 11:00N 39°43' W 075°31'0 0.0
2018-Jun-16 10:30N 39°43' W 075°31'0 0.0
2018-Jun-16 10:00N 39°43' W 075°31'0 0.0
2018-Jun-16 09:30N 39°43' W 075°31'0 0.0
2018-Jun-16 09:00N 39°43' W 075°31'0 0.0
2018-Jun-16 08:31N 39°43' W 075°31'0 0.0
2018-Jun-16 08:00N 39°43' W 075°31'0 0.0
2018-Jun-16 07:30N 39°43' W 075°31'0 0.0
2018-Jun-16 07:01N 39°43' W 075°31'0 0.0
2018-Jun-16 06:31N 39°43' W 075°31'0 0.0
2018-Jun-16 06:00N 39°43' W 075°31'0 0.0
2018-Jun-16 05:30N 39°43' W 075°31'0 0.0
2018-Jun-16 05:00N 39°43' W 075°31'0 0.8
2018-Jun-16 04:30N 39°43' W 075°31'713.9
2018-Jun-16 04:00N 39°37' W 075°36'2 4.3
2018-Jun-16 03:30N 39°35' W 075°35'0 0.0
2018-Jun-16 03:00N 39°35' W 075°35'0 0.3
2018-Jun-16 02:30N 39°35' W 075°35'0 0.0
2018-Jun-16 01:59N 39°35' W 075°35'1 0.7
2018-Jun-16 01:17N 39°34' W 075°35'1 1.7
2018-Jun-16 01:00N 39°35' W 075°35'0 0.0
2018-Jun-16 00:30N 39°35' W 075°35'0 0.6
2018-Jun-16 00:00N 39°35' W 075°36'0 0.5
2018-Jun-15 23:30N 39°35' W 075°35'0 0.0
2018-Jun-15 23:00N 39°35' W 075°35'0 0.0
2018-Jun-15 22:30N 39°35' W 075°35'0 0.0
2018-Jun-15 22:00N 39°35' W 075°35'0 0.0
2018-Jun-15 21:30N 39°35' W 075°35'0 0.0
2018-Jun-15 21:00N 39°35' W 075°35'0 0.0
2018-Jun-15 20:29N 39°35' W 075°35'0 0.0
2018-Jun-15 19:56N 39°35' W 075°35'0 0.0
2018-Jun-15 19:29N 39°35' W 075°35'0 0.0
2018-Jun-15 18:58N 39°35' W 075°35'0 0.0
2018-Jun-15 18:30N 39°35' W 075°35'0 0.0
2018-Jun-15 17:59N 39°35' W 075°35'0 0.0
2018-Jun-15 17:30N 39°35' W 075°35'0 0.0
2018-Jun-15 17:00N 39°35' W 075°35'0 0.0
2018-Jun-15 16:30N 39°35' W 075°35'0 0.0
2018-Jun-15 16:00N 39°35' W 075°35'0 0.0
2018-Jun-15 15:30N 39°35' W 075°35'0 0.0
2018-Jun-15 15:00N 39°35' W 075°35'0 0.0
2018-Jun-15 14:30N 39°35' W 075°35'0 0.0
2018-Jun-15 14:00N 39°35' W 075°35'0 0.0
2018-Jun-15 13:30N 39°35' W 075°35'0 0.0
2018-Jun-15 13:00N 39°35' W 075°35'0 0.0
2018-Jun-15 12:30N 39°35' W 075°35'0 0.0
2018-Jun-15 12:00N 39°35' W 075°35'0 0.0
2018-Jun-15 11:30N 39°35' W 075°35'0 0.0
2018-Jun-15 11:00N 39°35' W 075°35'0 0.0
2018-Jun-15 10:30N 39°35' W 075°35'0 0.0
2018-Jun-15 10:00N 39°35' W 075°35'0 0.0
2018-Jun-15 09:30N 39°35' W 075°35'0 0.0
2018-Jun-15 09:00N 39°35' W 075°35'0 0.5
2018-Jun-15 08:30N 39°35' W 075°35'0 0.6
2018-Jun-15 08:00N 39°35' W 075°35'0 0.4
2018-Jun-15 07:30N 39°35' W 075°35'0 0.0
2018-Jun-15 07:00N 39°35' W 075°35'0 0.3
2018-Jun-15 06:30N 39°35' W 075°35'2 3.4
2018-Jun-15 06:00N 39°34' W 075°33'1 1.9
2018-Jun-15 05:30N 39°35' W 075°34'2 3.4
2018-Jun-15 05:00N 39°35' W 075°36'5 9.4
2018-Jun-15 04:30N 39°40' W 075°33'4 7.5
2018-Jun-15 04:00N 39°43' W 075°31'0 0.0
2018-Jun-15 03:31N 39°43' W 075°31'0 0.0
2018-Jun-15 03:01N 39°43' W 075°31'0 0.0
2018-Jun-15 02:30N 39°43' W 075°31'0 0.0
2018-Jun-15 02:01N 39°43' W 075°31'0 0.0
2018-Jun-15 01:30N 39°43' W 075°31'0 0.0
2018-Jun-15 01:00N 39°43' W 075°31'0 0.0
2018-Jun-15 00:30N 39°43' W 075°31'0 0.0
2018-Jun-15 00:00N 39°43' W 075°31'0 0.0
2018-Jun-14 23:30N 39°43' W 075°31'0 0.0
2018-Jun-14 23:00N 39°43' W 075°31'0 0.0
2018-Jun-14 22:30N 39°43' W 075°31'0 0.0
2018-Jun-14 22:00N 39°43' W 075°31'0 0.0
2018-Jun-14 21:30N 39°43' W 075°31'0 0.0
2018-Jun-14 21:00N 39°43' W 075°31'0 0.0
2018-Jun-14 20:30N 39°43' W 075°31'0 0.0
2018-Jun-14 20:00N 39°43' W 075°31'0 0.0
2018-Jun-14 19:29N 39°43' W 075°31'0 0.0
2018-Jun-14 19:00N 39°43' W 075°31'0 0.0
2018-Jun-14 18:30N 39°43' W 075°31'0 0.0
2018-Jun-14 18:00N 39°43' W 075°31'0 0.0
2018-Jun-14 17:30N 39°43' W 075°31'0 0.0
2018-Jun-14 17:01N 39°43' W 075°31'0 0.0
2018-Jun-14 16:30N 39°43' W 075°31'0 0.0
2018-Jun-14 16:00N 39°43' W 075°31'0 0.0
2018-Jun-14 15:31N 39°43' W 075°31'0 0.0
2018-Jun-14 15:00N 39°43' W 075°31'0 0.0
2018-Jun-14 14:29N 39°43' W 075°31'0 0.0
2018-Jun-14 14:01N 39°43' W 075°31'0 0.0
2018-Jun-14 13:30N 39°43' W 075°31'0 0.0
2018-Jun-14 11:34N 39°43' W 075°31'0 0.1
2018-Jun-14 11:30N 39°43' W 075°31'0 0.0
2018-Jun-14 11:00N 39°43' W 075°31'0 0.0
2018-Jun-14 10:30N 39°43' W 075°31'3 5.2
2018-Jun-14 10:00N 39°45' W 075°29'510.1
2018-Jun-14 09:30N 39°49' W 075°24'0 0.1
2018-Jun-14 09:00N 39°49' W 075°24'0 0.0
2018-Jun-14 08:31N 39°49' W 075°24'0 0.6
2018-Jun-14 08:00N 39°48' W 075°25'1 1.9
2018-Jun-14 07:30N 39°48' W 075°26'0 0.0
2018-Jun-14 07:00N 39°48' W 075°26'0 0.0
2018-Jun-14 06:31N 39°48' W 075°26'0 0.0
2018-Jun-14 06:00N 39°48' W 075°26'0 0.0
2018-Jun-14 05:30N 39°48' W 075°26'0 0.0
2018-Jun-14 05:01N 39°48' W 075°26'0 0.0
2018-Jun-14 04:31N 39°48' W 075°26'  

Dump ship's entire track history